createdAt,value
2023-02-02T00:05:13.611Z,3.09
2023-02-02T00:10:35.460Z,3.15
2023-02-02T00:15:57.371Z,3.13
2023-02-02T00:21:19.348Z,3.13
2023-02-02T00:26:43.053Z,3.25
2023-02-02T00:32:05.179Z,3.20
2023-02-02T00:37:27.024Z,3.15
2023-02-02T00:42:48.886Z,3.26
2023-02-02T00:48:10.750Z,3.20
2023-02-02T00:53:32.786Z,3.25
2023-02-02T00:58:54.691Z,3.24
2023-02-02T01:04:16.756Z,3.36
2023-02-02T01:09:38.613Z,3.14
2023-02-02T01:15:01.489Z,3.03
2023-02-02T01:20:23.495Z,2.73
2023-02-02T01:25:46.628Z,2.38
2023-02-02T01:31:11.933Z,2.20
2023-02-02T01:36:33.793Z,2.19
2023-02-02T01:41:55.628Z,2.13
2023-02-02T01:47:23.077Z,2.02
2023-02-02T01:52:48.891Z,2.15
2023-02-02T01:58:31.798Z,2.04
2023-02-02T02:03:54.843Z,2.01
2023-02-02T02:09:17.416Z,2.09
2023-02-02T02:14:39.550Z,2.00
2023-02-02T02:20:10.730Z,2.08
2023-02-02T02:25:57.980Z,2.14
2023-02-02T02:31:32.250Z,2.33
2023-02-02T02:37:30.017Z,2.39
2023-02-02T02:42:57.258Z,2.56
2023-02-02T02:48:19.190Z,2.61
2023-02-02T02:53:41.055Z,2.63
2023-02-02T02:59:10.751Z,2.61
2023-02-02T03:04:45.205Z,2.56
2023-02-02T03:10:10.153Z,2.62
2023-02-02T03:15:31.971Z,2.70
2023-02-02T03:20:53.951Z,2.66
2023-02-02T03:26:15.939Z,2.82
2023-02-02T03:31:38.072Z,2.83
2023-02-02T03:36:59.898Z,2.89
2023-02-02T03:42:21.793Z,3.08
2023-02-02T03:47:43.587Z,3.06
2023-02-02T03:53:05.498Z,3.04
2023-02-02T03:58:27.346Z,3.08
2023-02-02T04:03:50.409Z,3.17
2023-02-02T04:09:12.272Z,3.14
2023-02-02T04:14:34.137Z,3.24
2023-02-02T04:19:56.006Z,3.28
2023-02-02T04:25:17.904Z,3.31
2023-02-02T04:30:39.792Z,3.44
2023-02-02T04:36:02.143Z,3.32
2023-02-02T04:41:24.563Z,3.51
2023-02-02T04:46:46.491Z,3.45
2023-02-02T04:52:08.355Z,3.41
2023-02-02T04:57:30.453Z,3.53
2023-02-02T05:02:52.284Z,3.57
2023-02-02T05:08:14.188Z,3.50
2023-02-02T05:13:36.129Z,3.54
2023-02-02T05:18:57.966Z,3.61
2023-02-02T05:24:19.821Z,3.62
2023-02-02T05:29:41.680Z,3.70
2023-02-02T05:35:03.769Z,3.46
2023-02-02T05:40:25.620Z,3.60
2023-02-02T05:45:47.506Z,3.64
2023-02-02T05:51:19.151Z,3.60
2023-02-02T05:56:40.998Z,3.67
2023-02-02T06:02:03.026Z,3.70
2023-02-02T06:07:24.998Z,3.63
2023-02-02T06:12:46.937Z,3.72
2023-02-02T06:18:09.116Z,3.73
2023-02-02T06:23:31.128Z,3.80
2023-02-02T06:28:54.229Z,3.83
2023-02-02T06:34:16.088Z,3.97
2023-02-02T06:39:37.964Z,3.91
2023-02-02T06:45:00.016Z,3.92
2023-02-02T06:50:22.037Z,3.95
2023-02-02T06:55:43.904Z,4.00
2023-02-02T07:01:12.024Z,4.14
2023-02-02T07:06:34.014Z,4.17
2023-02-02T07:11:55.914Z,4.00
2023-02-02T07:17:17.771Z,3.90
2023-02-02T07:22:40.762Z,3.99
2023-02-02T07:28:02.810Z,4.05
2023-02-02T07:33:24.848Z,3.90
2023-02-02T07:38:48.510Z,3.92
2023-02-02T07:44:13.103Z,3.90
2023-02-02T07:49:34.950Z,3.99
2023-02-02T07:55:12.589Z,4.11
2023-02-02T08:00:36.268Z,4.10
2023-02-02T08:05:59.141Z,4.02
2023-02-02T08:11:23.020Z,3.97
2023-02-02T08:16:44.909Z,4.02
2023-02-02T08:22:06.931Z,3.98
2023-02-02T08:27:28.822Z,4.16
2023-02-02T08:32:50.813Z,4.11
2023-02-02T08:38:13.282Z,4.23
2023-02-02T08:43:35.836Z,3.92
2023-02-02T08:48:58.646Z,3.93
2023-02-02T08:54:20.562Z,4.05
2023-02-02T08:59:42.493Z,4.07
2023-02-02T09:05:04.512Z,4.19
2023-02-02T09:10:26.473Z,4.36
2023-02-02T09:15:48.332Z,4.30
2023-02-02T09:21:13.207Z,4.14
2023-02-02T09:26:35.174Z,4.26
2023-02-02T09:31:57.091Z,4.60
2023-02-02T09:37:19.381Z,4.62
2023-02-02T09:42:50.392Z,4.67
2023-02-02T09:48:29.112Z,4.51
2023-02-02T09:53:56.169Z,4.61
2023-02-02T09:59:24.714Z,4.68
2023-02-02T10:04:54.513Z,4.58
2023-02-02T10:10:29.071Z,4.54
2023-02-02T10:16:12.702Z,4.70
2023-02-02T10:21:43.312Z,4.72
2023-02-02T10:27:11.855Z,5.06
2023-02-02T10:32:42.087Z,5.41
2023-02-02T10:38:42.824Z,5.45
2023-02-02T10:44:10.337Z,5.29
2023-02-02T10:49:38.664Z,5.15
2023-02-02T10:55:18.494Z,5.26
2023-02-02T11:00:49.428Z,5.30
2023-02-02T11:06:12.862Z,4.97
2023-02-02T11:11:40.107Z,5.09
2023-02-02T11:17:05.479Z,4.80
2023-02-02T11:22:32.043Z,4.57
2023-02-02T11:27:53.763Z,4.02
2023-02-02T11:33:28.889Z,4.65
2023-02-02T11:39:20.005Z,4.73
2023-02-02T11:44:51.717Z,5.07
2023-02-02T11:50:26.743Z,5.25
2023-02-02T11:55:48.975Z,5.61
2023-02-02T12:01:24.778Z,5.99
2023-02-02T12:06:46.773Z,5.95
2023-02-02T12:12:33.354Z,5.74
2023-02-02T12:18:20.113Z,5.81
2023-02-02T12:24:18.988Z,5.28
2023-02-02T12:29:50.702Z,5.43
2023-02-02T12:35:27.811Z,5.17
2023-02-02T12:41:06.835Z,5.13
2023-02-02T12:46:44.886Z,5.01
2023-02-02T12:52:37.002Z,4.82
2023-02-02T12:58:49.817Z,4.34
2023-02-02T13:10:19.578Z,4.55
2023-02-02T13:15:49.711Z,4.70
2023-02-02T13:21:15.355Z,4.28
2023-02-02T13:26:47.335Z,4.56
2023-02-02T13:32:27.912Z,4.59
2023-02-02T13:38:04.260Z,4.64
2023-02-02T13:43:49.089Z,4.19
2023-02-02T13:49:26.728Z,4.32
2023-02-02T13:55:07.149Z,4.46
2023-02-02T14:00:35.912Z,4.80
2023-02-02T14:06:03.933Z,4.78
2023-02-02T14:11:33.652Z,4.79
2023-02-02T14:16:55.551Z,4.72
2023-02-02T14:22:39.196Z,4.90
2023-02-02T14:28:03.712Z,4.82
2023-02-02T14:33:37.875Z,4.82
2023-02-02T14:39:11.057Z,4.73
2023-02-02T14:44:32.964Z,4.63
2023-02-02T14:49:58.131Z,4.62
2023-02-02T15:01:59.530Z,4.56
2023-02-02T15:07:24.180Z,4.54
2023-02-02T15:12:47.999Z,4.61
2023-02-02T15:18:18.727Z,4.65
2023-02-02T15:23:44.606Z,4.44
2023-02-02T15:29:19.361Z,4.32
2023-02-02T15:34:45.758Z,4.35
2023-02-02T15:40:13.472Z,4.15
2023-02-02T15:45:41.390Z,3.98
2023-02-02T15:51:06.946Z,3.71
2023-02-02T15:56:30.550Z,3.51
2023-02-02T16:01:56.797Z,3.35
2023-02-02T16:07:28.923Z,3.15
2023-02-02T16:12:51.487Z,3.02
2023-02-02T16:18:14.142Z,2.90
2023-02-02T16:23:37.173Z,2.87
2023-02-02T16:28:59.701Z,2.95
2023-02-02T16:34:39.714Z,2.88
2023-02-02T16:40:29.756Z,2.89
2023-02-02T16:45:57.696Z,2.85
2023-02-02T16:51:19.556Z,3.00
2023-02-02T16:56:47.437Z,3.02
2023-02-02T17:02:29.138Z,3.00
2023-02-02T17:08:01.600Z,2.96
2023-02-02T17:13:32.538Z,2.91
2023-02-02T17:18:54.551Z,2.89
2023-02-02T17:24:16.849Z,2.82
2023-02-02T17:29:39.791Z,2.82
2023-02-02T17:35:01.859Z,2.87
2023-02-02T17:40:24.353Z,2.79
2023-02-02T17:45:46.836Z,2.78
2023-02-02T17:51:16.103Z,2.79
2023-02-02T17:56:38.071Z,2.79
2023-02-02T18:02:00.563Z,2.81
2023-02-02T18:07:22.383Z,2.81
2023-02-02T18:12:44.391Z,2.78
2023-02-02T18:18:06.385Z,2.78
2023-02-02T18:23:28.429Z,2.86
2023-02-02T18:28:51.351Z,2.87
2023-02-02T18:34:13.534Z,2.99
2023-02-02T18:39:36.088Z,3.02
2023-02-02T18:44:58.876Z,3.07
2023-02-02T18:50:20.849Z,2.91
2023-02-02T18:55:42.676Z,2.91
2023-02-02T19:01:16.554Z,2.93
2023-02-02T19:06:38.590Z,2.85
2023-02-02T19:12:01.714Z,2.78
2023-02-02T19:17:24.041Z,2.82
2023-02-02T19:22:45.895Z,2.75
2023-02-02T19:28:30.063Z,2.53
2023-02-02T19:33:52.959Z,2.46
2023-02-02T19:39:30.630Z,2.53
2023-02-02T19:44:53.369Z,2.38
2023-02-02T19:50:21.169Z,2.26
2023-02-02T19:55:43.033Z,2.26
2023-02-02T20:01:17.326Z,2.14
2023-02-02T20:06:56.761Z,2.17
2023-02-02T20:12:31.218Z,2.23
2023-02-02T20:17:55.545Z,2.27
2023-02-02T20:23:26.325Z,2.23
2023-02-02T20:28:49.579Z,2.15
2023-02-02T20:34:35.356Z,2.22
2023-02-02T20:40:21.792Z,2.12
2023-02-02T20:45:43.880Z,1.98
2023-02-02T20:51:05.894Z,2.02
2023-02-02T20:56:27.789Z,1.78
2023-02-02T21:01:49.793Z,1.78
2023-02-02T21:07:11.672Z,1.76
2023-02-02T21:12:33.537Z,1.55
2023-02-02T21:17:55.412Z,1.55
2023-02-02T21:23:17.246Z,1.51
2023-02-02T21:28:39.401Z,1.44
2023-02-02T21:34:01.608Z,1.41
2023-02-02T21:39:32.427Z,1.37
2023-02-02T21:44:58.383Z,1.20
2023-02-02T21:50:26.698Z,1.11
2023-02-02T21:55:59.862Z,0.91
2023-02-02T22:01:28.990Z,0.91
2023-02-02T22:06:58.999Z,0.83
2023-02-02T22:12:24.035Z,0.73
2023-02-02T22:17:46.671Z,0.67
2023-02-02T22:23:09.795Z,0.72
2023-02-02T22:28:39.731Z,0.67
2023-02-02T22:34:01.603Z,0.62
2023-02-02T22:39:23.440Z,0.57
2023-02-02T22:44:45.326Z,0.54
2023-02-02T22:50:07.672Z,0.46
2023-02-02T22:55:29.921Z,0.40
2023-02-02T23:00:52.163Z,0.35
2023-02-02T23:06:14.054Z,0.39
2023-02-02T23:11:35.914Z,0.37
2023-02-02T23:16:57.750Z,0.37
2023-02-02T23:22:19.623Z,0.42
2023-02-02T23:27:42.486Z,0.63
2023-02-02T23:33:04.471Z,0.73
2023-02-02T23:38:26.366Z,0.72
2023-02-02T23:43:48.310Z,0.85
2023-02-02T23:49:10.527Z,0.87
2023-02-02T23:54:33.643Z,0.80
2023-02-02T23:59:55.591Z,0.71
